createdAt,value
2019-03-19T00:02:24.126Z,9.90
2019-03-19T00:04:53.373Z,17.73
2019-03-19T00:07:22.610Z,11.77
2019-03-19T00:09:51.847Z,12.80
2019-03-19T00:12:21.076Z,16.03
2019-03-19T00:14:50.408Z,14.07
2019-03-19T00:17:19.647Z,12.37
2019-03-19T00:19:48.987Z,13.13
2019-03-19T00:22:18.410Z,12.90
2019-03-19T00:24:48.208Z,12.17
2019-03-19T00:27:17.458Z,12.23
2019-03-19T00:29:46.806Z,10.93
2019-03-19T00:32:16.041Z,10.90
2019-03-19T00:34:45.358Z,10.73
2019-03-19T00:37:14.635Z,11.20
2019-03-19T00:39:44.015Z,12.67
2019-03-19T00:42:13.241Z,12.03
2019-03-19T00:44:42.823Z,11.53
2019-03-19T00:47:12.103Z,10.90
2019-03-19T00:49:41.415Z,12.07
2019-03-19T00:52:10.665Z,10.90
2019-03-19T00:54:40.000Z,11.53
2019-03-19T00:57:09.877Z,11.67
2019-03-19T00:59:39.394Z,10.30
2019-03-19T01:02:08.731Z,12.03
2019-03-19T01:04:38.047Z,11.43
2019-03-19T01:07:07.401Z,12.73
2019-03-19T01:09:36.739Z,11.33
2019-03-19T01:12:06.056Z,11.10
2019-03-19T01:14:35.357Z,10.37
2019-03-19T01:17:05.258Z,10.60
2019-03-19T01:19:34.505Z,11.13
2019-03-19T01:22:03.806Z,10.40
2019-03-19T01:24:33.130Z,10.30
2019-03-19T01:27:02.370Z,9.73
2019-03-19T01:29:31.621Z,10.27
2019-03-19T01:32:00.934Z,10.80
2019-03-19T01:34:30.635Z,11.57
2019-03-19T01:36:59.874Z,10.23
2019-03-19T01:39:29.112Z,9.00
2019-03-19T01:41:58.436Z,10.47
2019-03-19T01:44:27.850Z,11.63
2019-03-19T01:46:57.170Z,9.40
2019-03-19T01:49:26.415Z,10.50
2019-03-19T01:51:55.673Z,9.60
2019-03-19T01:54:24.909Z,9.53
2019-03-19T01:56:54.134Z,9.83
2019-03-19T01:59:23.381Z,9.13
2019-03-19T02:01:52.619Z,10.70
2019-03-19T02:04:21.862Z,9.47
2019-03-19T02:06:51.093Z,10.37
2019-03-19T02:09:20.396Z,10.13
2019-03-19T02:11:49.761Z,10.10
2019-03-19T02:14:19.020Z,9.80
2019-03-19T02:16:48.285Z,10.97
2019-03-19T02:19:17.728Z,11.80
2019-03-19T02:21:47.103Z,10.60
2019-03-19T02:24:16.419Z,11.37
2019-03-19T02:26:45.735Z,10.60
2019-03-19T02:29:15.340Z,10.83
2019-03-19T02:31:44.594Z,10.47
2019-03-19T02:34:13.922Z,10.03
2019-03-19T02:36:43.193Z,10.80
2019-03-19T02:39:12.422Z,9.93
2019-03-19T02:41:41.699Z,9.87
2019-03-19T02:44:11.315Z,10.40
2019-03-19T02:46:40.627Z,10.43
2019-03-19T02:49:09.970Z,10.43
2019-03-19T02:51:39.201Z,10.13
2019-03-19T02:54:08.494Z,9.43
2019-03-19T02:56:37.810Z,11.17
2019-03-19T02:59:07.046Z,9.40
2019-03-19T03:01:36.376Z,10.77
2019-03-19T03:04:05.670Z,10.57
2019-03-19T03:06:35.084Z,10.50
2019-03-19T03:09:05.806Z,10.63
2019-03-19T03:11:35.875Z,10.03
2019-03-19T03:14:05.120Z,10.27
2019-03-19T03:16:34.344Z,9.90
2019-03-19T03:19:03.695Z,10.33
2019-03-19T03:21:34.685Z,9.27
2019-03-19T03:24:04.241Z,9.50
2019-03-19T03:26:46.820Z,10.00
2019-03-19T03:29:04.523Z,10.33
2019-03-19T03:31:33.774Z,10.20
2019-03-19T03:34:03.131Z,9.63
2019-03-19T03:36:32.380Z,9.57
2019-03-19T03:39:01.721Z,9.83
2019-03-19T03:41:31.170Z,10.00
2019-03-19T03:44:00.512Z,9.87
2019-03-19T03:46:30.527Z,9.23
2019-03-19T03:48:59.832Z,9.30
2019-03-19T03:51:29.182Z,9.27
2019-03-19T03:53:58.419Z,9.30
2019-03-19T03:56:27.654Z,9.10
2019-03-19T03:59:00.766Z,9.03
2019-03-19T04:01:28.024Z,9.53
2019-03-19T04:03:57.268Z,9.83
2019-03-19T04:06:26.511Z,10.40
2019-03-19T04:08:55.826Z,9.97
2019-03-19T04:11:25.081Z,10.77
2019-03-19T04:13:54.382Z,14.93
2019-03-19T04:16:23.801Z,18.27
2019-03-19T04:18:53.043Z,11.30
2019-03-19T04:21:22.746Z,11.87
2019-03-19T04:23:52.064Z,9.37
2019-03-19T04:26:21.385Z,10.20
2019-03-19T04:28:52.515Z,9.33
2019-03-19T04:31:22.173Z,10.47
2019-03-19T04:33:51.400Z,13.03
2019-03-19T04:36:20.673Z,18.33
2019-03-19T04:38:50.203Z,18.60
2019-03-19T04:41:19.507Z,11.73
2019-03-19T04:43:48.937Z,9.80
2019-03-19T04:46:18.194Z,10.37
2019-03-19T04:48:47.443Z,10.80
2019-03-19T04:51:16.684Z,9.40
2019-03-19T04:53:45.914Z,9.83
2019-03-19T04:56:15.178Z,9.53
2019-03-19T04:58:44.979Z,10.13
2019-03-19T05:01:14.273Z,10.30
2019-03-19T05:03:43.574Z,9.63
2019-03-19T05:06:12.884Z,10.17
2019-03-19T05:08:42.125Z,10.73
2019-03-19T05:11:11.422Z,11.97
2019-03-19T05:13:40.665Z,10.00
2019-03-19T05:16:09.827Z,10.40
2019-03-19T05:18:39.139Z,10.70
2019-03-19T05:21:08.372Z,13.53
2019-03-19T05:23:37.802Z,9.67
2019-03-19T05:26:07.095Z,11.80
2019-03-19T05:28:36.410Z,9.50
2019-03-19T05:31:05.764Z,14.70
2019-03-19T05:33:35.683Z,18.27
2019-03-19T05:36:04.939Z,14.50
2019-03-19T05:38:34.175Z,12.87
2019-03-19T05:41:03.494Z,17.93
2019-03-19T05:43:32.810Z,12.73
2019-03-19T05:46:02.063Z,12.13
2019-03-19T05:48:31.388Z,14.00
2019-03-19T05:51:00.749Z,13.97
2019-03-19T05:53:30.058Z,15.97
2019-03-19T05:55:59.289Z,22.50
2019-03-19T05:58:28.622Z,9.33
2019-03-19T06:00:57.949Z,10.50
2019-03-19T06:03:27.238Z,8.77
2019-03-19T06:05:57.272Z,11.73
2019-03-19T06:08:26.535Z,14.63
2019-03-19T06:10:55.844Z,10.47
2019-03-19T06:13:25.148Z,10.40
2019-03-19T06:15:54.477Z,12.57
2019-03-19T06:18:34.265Z,11.13
2019-03-19T06:20:54.712Z,12.70
2019-03-19T06:23:24.037Z,10.33
2019-03-19T06:25:57.052Z,7.27
2019-03-19T06:28:26.286Z,9.07
2019-03-19T06:30:55.604Z,17.30
2019-03-19T06:33:24.930Z,8.77
2019-03-19T06:35:54.223Z,16.97
2019-03-19T06:38:23.654Z,14.83
2019-03-19T06:40:52.971Z,8.30
2019-03-19T06:43:22.205Z,23.43
2019-03-19T06:45:51.504Z,7.30
2019-03-19T06:48:20.754Z,17.10
2019-03-19T06:50:49.924Z,9.63
2019-03-19T06:53:19.161Z,8.23
2019-03-19T06:55:48.493Z,6.63
2019-03-19T06:58:18.479Z,8.30
2019-03-19T07:00:47.769Z,8.83
2019-03-19T07:03:17.383Z,11.53
2019-03-19T07:05:46.695Z,8.77
2019-03-19T07:08:16.128Z,5.97
2019-03-19T07:10:45.436Z,10.07
2019-03-19T07:13:14.739Z,10.53
2019-03-19T07:15:44.086Z,7.60
2019-03-19T07:18:13.307Z,21.43
2019-03-19T07:20:42.584Z,6.27
2019-03-19T07:23:12.454Z,8.27
2019-03-19T07:25:41.703Z,8.00
2019-03-19T07:28:21.393Z,8.03
2019-03-19T07:30:41.897Z,11.77
2019-03-19T07:33:11.127Z,9.70
2019-03-19T07:35:40.370Z,7.83
2019-03-19T07:38:09.634Z,7.43
2019-03-19T07:40:39.537Z,12.00
2019-03-19T07:43:08.779Z,6.20
2019-03-19T07:45:38.018Z,5.93
2019-03-19T07:48:07.291Z,8.00
2019-03-19T07:50:36.522Z,8.27
2019-03-19T07:53:05.758Z,7.67
2019-03-19T07:55:35.187Z,13.87
2019-03-19T07:58:04.418Z,8.60
2019-03-19T08:00:33.738Z,6.30
2019-03-19T08:03:03.090Z,7.80
2019-03-19T08:05:33.602Z,7.27
2019-03-19T08:08:03.036Z,8.10
2019-03-19T08:10:32.386Z,5.90
2019-03-19T08:13:01.620Z,7.20
2019-03-19T08:15:30.942Z,4.93
2019-03-19T08:18:00.217Z,6.03
2019-03-19T08:20:29.549Z,6.83
2019-03-19T08:22:58.962Z,6.00
2019-03-19T08:25:28.779Z,4.70
2019-03-19T08:27:58.815Z,5.63
2019-03-19T08:30:28.192Z,6.33
2019-03-19T08:32:57.503Z,6.47
2019-03-19T08:35:26.773Z,5.63
2019-03-19T08:37:56.118Z,5.20
2019-03-19T08:40:25.376Z,5.23
2019-03-19T08:42:55.054Z,5.30
2019-03-19T08:45:24.305Z,5.20
2019-03-19T08:47:53.501Z,5.60
2019-03-19T08:50:23.348Z,6.50
2019-03-19T08:52:54.988Z,5.33
2019-03-19T08:55:23.561Z,7.57
2019-03-19T08:57:52.860Z,7.97
2019-03-19T09:00:22.312Z,6.73
2019-03-19T09:02:51.615Z,6.50
2019-03-19T09:05:20.870Z,7.13
2019-03-19T09:07:50.206Z,5.70
2019-03-19T09:10:19.531Z,8.23
2019-03-19T09:12:50.106Z,5.40
2019-03-19T09:15:19.553Z,5.27
2019-03-19T09:17:48.902Z,7.67
2019-03-19T09:20:18.215Z,6.93
2019-03-19T09:22:48.286Z,6.17
2019-03-19T09:25:17.550Z,6.10
2019-03-19T09:27:46.701Z,5.93
2019-03-19T09:30:16.434Z,5.10
2019-03-19T09:32:47.764Z,4.40
2019-03-19T09:35:17.548Z,4.97
2019-03-19T09:37:57.901Z,4.30
2019-03-19T09:40:17.685Z,4.73
2019-03-19T09:42:47.007Z,5.07
2019-03-19T09:45:16.743Z,5.37
2019-03-19T09:47:46.088Z,4.10
2019-03-19T09:50:15.957Z,5.10
2019-03-19T09:52:45.242Z,6.37
2019-03-19T09:55:14.624Z,6.50
2019-03-19T09:57:44.359Z,6.10
2019-03-19T10:00:16.023Z,4.77
2019-03-19T10:02:45.416Z,5.10
2019-03-19T10:05:14.738Z,3.80
2019-03-19T10:07:43.998Z,5.50
2019-03-19T10:10:14.526Z,8.83
2019-03-19T10:12:43.845Z,11.93
2019-03-19T10:15:14.593Z,4.97
2019-03-19T10:17:44.455Z,5.10
2019-03-19T10:20:14.555Z,6.10
2019-03-19T10:22:44.534Z,4.37
2019-03-19T10:25:13.897Z,6.03
2019-03-19T10:27:43.207Z,7.13
2019-03-19T10:30:17.229Z,5.60
2019-03-19T10:32:46.551Z,4.73
2019-03-19T10:35:16.079Z,7.13
2019-03-19T10:37:45.450Z,16.33
2019-03-19T10:40:14.707Z,5.40
2019-03-19T10:42:44.251Z,10.87
2019-03-19T10:45:13.756Z,5.93
2019-03-19T10:47:43.356Z,4.30
2019-03-19T10:50:15.749Z,4.50
2019-03-19T10:52:45.047Z,6.53
2019-03-19T10:55:14.632Z,5.27
2019-03-19T10:57:44.099Z,5.13
2019-03-19T11:00:17.039Z,6.53
2019-03-19T11:02:46.409Z,4.60
2019-03-19T11:05:15.810Z,4.00
2019-03-19T11:07:45.139Z,5.30
2019-03-19T11:10:14.905Z,4.57
2019-03-19T11:12:44.196Z,5.33
2019-03-19T11:15:15.538Z,5.77
2019-03-19T11:17:44.871Z,4.73
2019-03-19T11:20:15.767Z,4.67
2019-03-19T11:22:45.235Z,5.07
2019-03-19T11:25:15.722Z,5.43
2019-03-19T11:27:45.336Z,4.57
2019-03-19T11:30:19.998Z,6.93
2019-03-19T11:32:49.306Z,5.37
2019-03-19T11:35:18.957Z,5.00
2019-03-19T11:37:48.208Z,5.77
2019-03-19T11:40:17.586Z,6.50
2019-03-19T11:42:47.408Z,5.47
2019-03-19T11:45:16.814Z,5.30
2019-03-19T11:47:46.596Z,5.63
2019-03-19T11:50:17.760Z,4.70
2019-03-19T11:52:46.998Z,5.27
2019-03-19T11:55:16.486Z,5.20
2019-03-19T11:57:45.787Z,5.60
2019-03-19T12:00:29.274Z,7.70
2019-03-19T12:02:58.545Z,11.10
2019-03-19T12:05:27.865Z,9.70
2019-03-19T12:07:58.115Z,6.07
2019-03-19T12:10:27.351Z,6.90
2019-03-19T12:12:56.659Z,7.03
2019-03-19T12:15:26.023Z,6.80
2019-03-19T12:17:55.259Z,12.57
2019-03-19T12:20:24.559Z,6.90
2019-03-19T12:22:53.805Z,8.47
2019-03-19T12:25:23.497Z,9.10
2019-03-19T12:27:52.761Z,9.37
2019-03-19T12:30:24.770Z,5.93
2019-03-19T12:32:52.945Z,6.10
2019-03-19T12:35:22.151Z,5.77
2019-03-19T12:37:51.492Z,5.67
2019-03-19T12:40:20.830Z,6.73
2019-03-19T12:42:50.075Z,10.57
2019-03-19T12:45:19.730Z,6.40
2019-03-19T12:47:49.140Z,9.40
2019-03-19T12:50:18.580Z,11.17
2019-03-19T12:52:47.813Z,8.97
2019-03-19T12:55:17.144Z,24.07
2019-03-19T12:57:46.464Z,12.37
2019-03-19T13:00:17.499Z,15.03
2019-03-19T13:02:48.032Z,10.07
2019-03-19T13:05:17.326Z,10.60
2019-03-19T13:07:46.887Z,11.37
2019-03-19T13:10:18.052Z,12.23
2019-03-19T13:12:47.386Z,8.40
2019-03-19T13:15:19.139Z,12.97
2019-03-19T13:17:48.134Z,27.83
2019-03-19T13:20:17.510Z,25.77
2019-03-19T13:22:46.754Z,31.60
2019-03-19T13:25:16.954Z,14.23
2019-03-19T13:27:46.265Z,20.73
2019-03-19T13:30:17.563Z,18.10
2019-03-19T13:32:46.815Z,12.73
2019-03-19T13:35:16.132Z,9.80
2019-03-19T13:37:46.155Z,8.33
2019-03-19T13:40:16.577Z,5.53
2019-03-19T13:42:45.930Z,7.67
2019-03-19T13:45:15.495Z,10.13
2019-03-19T13:47:44.838Z,11.23
2019-03-19T13:50:14.707Z,13.20
2019-03-19T13:52:44.062Z,10.47
2019-03-19T13:55:14.284Z,8.40
2019-03-19T13:57:43.533Z,19.23
2019-03-19T14:00:13.515Z,11.00
2019-03-19T14:02:42.956Z,10.83
2019-03-19T14:05:12.306Z,12.90
2019-03-19T14:07:41.561Z,7.57
2019-03-19T14:10:11.981Z,11.70
2019-03-19T14:12:41.347Z,13.83
2019-03-19T14:15:12.786Z,23.37
2019-03-19T14:17:42.030Z,13.23
2019-03-19T14:20:13.267Z,9.70
2019-03-19T14:22:45.016Z,10.47
2019-03-19T14:25:13.618Z,11.13
2019-03-19T14:27:43.026Z,10.73
2019-03-19T14:30:14.618Z,12.20
2019-03-19T14:32:43.873Z,11.43
2019-03-19T14:35:13.246Z,13.83
2019-03-19T14:37:42.582Z,16.83
2019-03-19T14:40:14.640Z,23.30
2019-03-19T14:42:44.130Z,20.93
2019-03-19T14:45:14.771Z,22.03
2019-03-19T14:47:44.093Z,18.03
2019-03-19T14:50:14.023Z,14.60
2019-03-19T14:52:44.031Z,12.57
2019-03-19T14:55:13.710Z,17.40
2019-03-19T14:57:42.987Z,15.87
2019-03-19T15:00:14.158Z,14.53
2019-03-19T15:02:43.478Z,19.60
2019-03-19T15:05:13.338Z,59.90
2019-03-19T15:07:43.084Z,29.40
2019-03-19T15:10:13.838Z,28.67
2019-03-19T15:12:43.157Z,24.70
2019-03-19T15:15:14.107Z,19.37
2019-03-19T15:17:43.540Z,26.93
2019-03-19T15:20:15.094Z,20.77
2019-03-19T15:22:44.306Z,26.30
2019-03-19T15:25:13.614Z,22.90
2019-03-19T15:27:42.845Z,25.93
2019-03-19T15:30:13.275Z,36.27
2019-03-19T15:32:42.707Z,40.87
2019-03-19T15:35:12.143Z,33.17
2019-03-19T15:37:41.494Z,40.83
2019-03-19T15:40:12.335Z,32.90
2019-03-19T15:42:41.639Z,29.07
2019-03-19T15:45:11.669Z,44.63
2019-03-19T15:47:40.943Z,43.40
2019-03-19T15:50:12.225Z,25.67
2019-03-19T15:52:41.624Z,19.10
2019-03-19T15:55:11.871Z,32.90
2019-03-19T15:57:41.171Z,50.33
2019-03-19T16:00:12.932Z,37.77
2019-03-19T16:02:42.245Z,40.27
2019-03-19T16:05:11.712Z,62.40
2019-03-19T16:07:40.942Z,74.47
2019-03-19T16:10:10.501Z,80.07
2019-03-19T16:12:39.841Z,62.40
2019-03-19T16:15:11.600Z,52.97
2019-03-19T16:17:41.164Z,52.53
2019-03-19T16:20:12.870Z,54.00
2019-03-19T16:22:42.133Z,53.17
2019-03-19T16:25:11.493Z,34.10
2019-03-19T16:27:40.830Z,42.90
2019-03-19T16:30:12.187Z,182.80
2019-03-19T16:32:41.864Z,63.43
2019-03-19T16:35:11.363Z,147.33
2019-03-19T16:37:41.006Z,81.43
2019-03-19T16:40:13.135Z,50.17
2019-03-19T16:42:42.596Z,44.40
2019-03-19T16:45:12.211Z,37.80
2019-03-19T16:47:41.545Z,38.70
2019-03-19T16:50:11.939Z,50.87
2019-03-19T16:52:41.265Z,38.73
2019-03-19T16:55:11.847Z,47.27
2019-03-19T16:57:41.171Z,33.43
2019-03-19T17:00:13.343Z,44.53
2019-03-19T17:02:42.663Z,50.67
2019-03-19T17:05:12.379Z,53.23
2019-03-19T17:07:41.931Z,120.27
2019-03-19T17:10:13.301Z,251.67
2019-03-19T17:12:42.685Z,81.57
2019-03-19T17:15:12.674Z,76.73
2019-03-19T17:17:42.069Z,230.30
2019-03-19T17:20:12.108Z,192.77
2019-03-19T17:22:41.575Z,183.80
2019-03-19T17:25:13.062Z,78.73
2019-03-19T17:27:43.178Z,113.47
2019-03-19T17:30:23.242Z,138.43
2019-03-19T17:32:52.597Z,245.03
2019-03-19T17:35:22.075Z,297.40
2019-03-19T17:37:52.067Z,176.50
2019-03-19T17:40:21.511Z,94.83
2019-03-19T17:42:50.903Z,76.63
2019-03-19T17:45:20.787Z,105.60
2019-03-19T17:47:50.319Z,91.43
2019-03-19T17:50:19.975Z,115.97
2019-03-19T17:52:50.228Z,84.43
2019-03-19T17:55:19.524Z,62.77
2019-03-19T17:57:48.923Z,58.13
2019-03-19T18:00:22.443Z,64.97
2019-03-19T18:02:51.807Z,53.07
2019-03-19T18:05:21.155Z,59.20
2019-03-19T18:07:50.509Z,51.53
2019-03-19T18:10:19.843Z,48.00
2019-03-19T18:12:49.184Z,51.40
2019-03-19T18:15:18.763Z,70.63
2019-03-19T18:17:48.009Z,79.10
2019-03-19T18:20:17.605Z,93.50
2019-03-19T18:22:46.986Z,99.33
2019-03-19T18:25:16.418Z,122.30
2019-03-19T18:27:45.778Z,148.70
2019-03-19T18:30:15.481Z,190.03
2019-03-19T18:32:44.848Z,264.53
2019-03-19T18:35:14.215Z,150.60
2019-03-19T18:37:44.085Z,160.73
2019-03-19T18:40:13.403Z,93.67
2019-03-19T18:42:42.687Z,99.93
2019-03-19T18:45:12.150Z,97.27
2019-03-19T18:47:42.270Z,157.23
2019-03-19T18:50:13.391Z,92.53
2019-03-19T18:52:42.743Z,64.83
2019-03-19T18:55:12.237Z,66.47
2019-03-19T18:57:41.818Z,43.07
2019-03-19T19:00:13.439Z,47.03
2019-03-19T19:02:49.735Z,46.23
2019-03-19T19:05:13.781Z,44.60
2019-03-19T19:07:43.648Z,57.43
2019-03-19T19:10:13.166Z,58.57
2019-03-19T19:12:42.611Z,59.30
2019-03-19T19:15:13.551Z,60.93
2019-03-19T19:17:42.890Z,57.13
2019-03-19T19:20:12.329Z,52.27
2019-03-19T19:22:42.061Z,60.37
2019-03-19T19:25:12.745Z,74.93
2019-03-19T19:27:42.148Z,60.20
2019-03-19T19:30:13.987Z,48.13
2019-03-19T19:32:43.231Z,35.73
2019-03-19T19:35:12.561Z,35.50
2019-03-19T19:37:41.873Z,50.47
2019-03-19T19:40:13.099Z,113.60
2019-03-19T19:42:43.004Z,67.33
2019-03-19T19:45:12.413Z,80.27
2019-03-19T19:47:41.761Z,66.17
2019-03-19T19:50:12.544Z,61.17
2019-03-19T19:52:41.802Z,42.30
2019-03-19T19:55:11.205Z,75.80
2019-03-19T19:57:40.538Z,98.53
2019-03-19T20:00:12.407Z,80.77
2019-03-19T20:02:41.693Z,45.13
2019-03-19T20:05:10.992Z,54.60
2019-03-19T20:07:40.998Z,59.10
2019-03-19T20:10:12.864Z,33.37
2019-03-19T20:12:42.214Z,29.47
2019-03-19T20:15:11.696Z,24.57
2019-03-19T20:17:41.024Z,39.00
2019-03-19T20:20:14.262Z,95.10
2019-03-19T20:22:44.784Z,87.83
2019-03-19T20:25:14.316Z,91.70
2019-03-19T20:27:43.653Z,66.97
2019-03-19T20:30:17.627Z,56.00
2019-03-19T20:32:47.043Z,32.83
2019-03-19T20:35:16.316Z,40.80
2019-03-19T20:37:45.715Z,121.20
2019-03-19T20:40:15.046Z,57.07
2019-03-19T20:42:44.533Z,130.73
2019-03-19T20:45:14.136Z,39.37
2019-03-19T20:47:43.483Z,42.87
2019-03-19T20:50:15.529Z,41.43
2019-03-19T20:52:44.854Z,62.60
2019-03-19T20:55:14.281Z,74.17
2019-03-19T20:57:43.823Z,128.73
2019-03-19T21:00:14.983Z,118.90
2019-03-19T21:02:44.286Z,49.73
2019-03-19T21:05:13.761Z,53.07
2019-03-19T21:07:42.982Z,60.90
2019-03-19T21:10:14.655Z,63.60
2019-03-19T21:12:43.913Z,86.67
2019-03-19T21:15:18.038Z,115.83
2019-03-19T21:17:47.665Z,80.97
2019-03-19T21:20:16.922Z,89.87
2019-03-19T21:22:46.255Z,64.83
2019-03-19T21:25:16.079Z,53.63
2019-03-19T21:27:45.339Z,147.33
2019-03-19T21:30:15.242Z,41.43
2019-03-19T21:32:44.710Z,61.87
2019-03-19T21:35:14.041Z,52.27
2019-03-19T21:37:43.289Z,60.50
2019-03-19T21:40:13.197Z,80.00
2019-03-19T21:42:42.526Z,70.27
2019-03-19T21:45:12.384Z,81.53
2019-03-19T21:47:41.667Z,73.10
2019-03-19T21:50:12.583Z,76.90
2019-03-19T21:52:41.939Z,64.27
2019-03-19T21:55:11.326Z,56.77
2019-03-19T21:57:41.164Z,41.53
2019-03-19T22:00:13.156Z,47.47
2019-03-19T22:02:42.492Z,49.40
2019-03-19T22:05:11.805Z,50.47
2019-03-19T22:07:41.207Z,73.17
2019-03-19T22:10:12.400Z,78.53
2019-03-19T22:12:42.115Z,105.63
2019-03-19T22:15:14.620Z,102.30
2019-03-19T22:17:43.859Z,56.47
2019-03-19T22:20:14.028Z,43.10
2019-03-19T22:22:43.793Z,38.63
2019-03-19T22:25:13.190Z,37.03
2019-03-19T22:27:42.585Z,36.20
2019-03-19T22:30:14.267Z,28.37
2019-03-19T22:32:43.525Z,27.53
2019-03-19T22:35:12.846Z,27.83
2019-03-19T22:37:42.117Z,52.67
2019-03-19T22:40:12.817Z,44.40
2019-03-19T22:42:42.088Z,33.63
2019-03-19T22:45:12.781Z,31.90
2019-03-19T22:47:42.097Z,28.37
2019-03-19T22:50:12.122Z,30.93
2019-03-19T22:52:41.449Z,39.33
2019-03-19T22:55:10.808Z,28.03
2019-03-19T22:57:40.091Z,24.77
2019-03-19T23:00:14.390Z,27.60
2019-03-19T23:02:43.770Z,28.63
2019-03-19T23:05:14.679Z,29.17
2019-03-19T23:07:44.310Z,30.67
2019-03-19T23:10:13.602Z,36.10
2019-03-19T23:12:42.881Z,35.47
2019-03-19T23:15:12.148Z,79.30
2019-03-19T23:17:41.527Z,57.90
2019-03-19T23:20:11.277Z,36.60
2019-03-19T23:22:40.644Z,28.67
2019-03-19T23:25:10.099Z,27.60
2019-03-19T23:27:39.345Z,20.67
2019-03-19T23:30:08.904Z,18.67
2019-03-19T23:32:38.264Z,17.40
2019-03-19T23:35:07.611Z,18.60
2019-03-19T23:37:37.501Z,19.53
2019-03-19T23:40:07.068Z,21.83
2019-03-19T23:42:36.329Z,21.73
2019-03-19T23:45:07.607Z,20.13
2019-03-19T23:47:36.975Z,18.90
2019-03-19T23:50:07.915Z,17.83
2019-03-19T23:52:37.163Z,20.03
2019-03-19T23:55:06.767Z,26.70
2019-03-19T23:57:36.110Z,22.07
